sensor_id;sensor_type;location;lat;lon;timestamp;P1;durP1;ratioP1;P2;durP2;ratioP2
20181;SDS011;10250;50.756;6.172;2024-03-02T00:01:33;5.53;;;1.37;;
20181;SDS011;10250;50.756;6.172;2024-03-02T00:03:33;4.87;;;1.10;;
20181;SDS011;10250;50.756;6.172;2024-03-02T00:05:34;3.23;;;1.13;;
20181;SDS011;10250;50.756;6.172;2024-03-02T00:07:35;5.60;;;1.30;;
20181;SDS011;10250;50.756;6.172;2024-03-02T00:09:36;5.53;;;1.10;;
20181;SDS011;10250;50.756;6.172;2024-03-02T00:11:36;4.37;;;1.10;;
20181;SDS011;10250;50.756;6.172;2024-03-02T00:13:37;4.30;;;1.03;;
20181;SDS011;10250;50.756;6.172;2024-03-02T00:15:45;3.37;;;1.00;;
20181;SDS011;10250;50.756;6.172;2024-03-02T00:17:47;2.90;;;1.10;;
20181;SDS011;10250;50.756;6.172;2024-03-02T00:19:53;7.30;;;1.33;;
20181;SDS011;10250;50.756;6.172;2024-03-02T00:21:54;5.53;;;1.17;;
20181;SDS011;10250;50.756;6.172;2024-03-02T00:23:54;4.40;;;1.00;;
20181;SDS011;10250;50.756;6.172;2024-03-02T00:25:56;2.47;;;1.00;;
20181;SDS011;10250;50.756;6.172;2024-03-02T00:27:57;4.67;;;1.30;;
20181;SDS011;10250;50.756;6.172;2024-03-02T00:29:59;5.90;;;1.20;;
20181;SDS011;10250;50.756;6.172;2024-03-02T00:32:01;3.93;;;1.23;;
20181;SDS011;10250;50.756;6.172;2024-03-02T00:34:02;4.80;;;1.20;;
20181;SDS011;10250;50.756;6.172;2024-03-02T00:36:06;5.00;;;1.10;;
20181;SDS011;10250;50.756;6.172;2024-03-02T00:38:08;3.20;;;1.10;;
20181;SDS011;10250;50.756;6.172;2024-03-02T00:40:08;6.03;;;1.20;;
20181;SDS011;10250;50.756;6.172;2024-03-02T00:42:10;5.37;;;1.30;;
20181;SDS011;10250;50.756;6.172;2024-03-02T00:44:12;7.40;;;1.30;;
20181;SDS011;10250;50.756;6.172;2024-03-02T00:46:16;5.27;;;1.30;;
20181;SDS011;10250;50.756;6.172;2024-03-02T00:48:18;5.13;;;1.23;;
20181;SDS011;10250;50.756;6.172;2024-03-02T00:50:19;8.90;;;2.10;;
20181;SDS011;10250;50.756;6.172;2024-03-02T00:52:20;6.13;;;1.30;;
20181;SDS011;10250;50.756;6.172;2024-03-02T00:54:25;5.37;;;1.20;;
20181;SDS011;10250;50.756;6.172;2024-03-02T00:56:26;4.90;;;1.13;;
20181;SDS011;10250;50.756;6.172;2024-03-02T00:58:27;8.10;;;1.20;;
20181;SDS011;10250;50.756;6.172;2024-03-02T01:00:27;3.53;;;1.10;;
20181;SDS011;10250;50.756;6.172;2024-03-02T01:02:28;3.37;;;0.97;;
20181;SDS011;10250;50.756;6.172;2024-03-02T01:04:29;5.33;;;1.17;;
20181;SDS011;10250;50.756;6.172;2024-03-02T01:06:30;8.00;;;1.40;;
20181;SDS011;10250;50.756;6.172;2024-03-02T01:08:30;5.40;;;1.10;;
20181;SDS011;10250;50.756;6.172;2024-03-02T01:10:31;6.03;;;1.20;;
20181;SDS011;10250;50.756;6.172;2024-03-02T01:12:31;4.77;;;1.00;;
20181;SDS011;10250;50.756;6.172;2024-03-02T01:14:32;4.27;;;1.10;;
20181;SDS011;10250;50.756;6.172;2024-03-02T01:16:33;5.30;;;1.20;;
20181;SDS011;10250;50.756;6.172;2024-03-02T01:18:33;4.87;;;1.13;;
20181;SDS011;10250;50.756;6.172;2024-03-02T01:20:34;6.27;;;1.30;;
20181;SDS011;10250;50.756;6.172;2024-03-02T01:22:35;8.37;;;1.10;;
20181;SDS011;10250;50.756;6.172;2024-03-02T01:24:35;5.63;;;0.90;;
20181;SDS011;10250;50.756;6.172;2024-03-02T01:26:36;7.27;;;1.20;;
20181;SDS011;10250;50.756;6.172;2024-03-02T01:28:36;5.73;;;1.20;;
20181;SDS011;10250;50.756;6.172;2024-03-02T01:30:37;6.53;;;1.40;;
20181;SDS011;10250;50.756;6.172;2024-03-02T01:32:38;4.10;;;1.00;;
20181;SDS011;10250;50.756;6.172;2024-03-02T01:34:38;5.63;;;1.23;;
20181;SDS011;10250;50.756;6.172;2024-03-02T01:36:39;5.90;;;1.37;;
20181;SDS011;10250;50.756;6.172;2024-03-02T01:38:39;3.87;;;1.00;;
20181;SDS011;10250;50.756;6.172;2024-03-02T01:40:41;5.67;;;1.20;;
20181;SDS011;10250;50.756;6.172;2024-03-02T01:42:44;4.27;;;1.23;;
20181;SDS011;10250;50.756;6.172;2024-03-02T01:44:44;5.57;;;1.30;;
20181;SDS011;10250;50.756;6.172;2024-03-02T01:46:45;3.97;;;1.20;;
20181;SDS011;10250;50.756;6.172;2024-03-02T01:48:46;5.47;;;1.20;;
20181;SDS011;10250;50.756;6.172;2024-03-02T01:50:47;4.17;;;1.13;;
20181;SDS011;10250;50.756;6.172;2024-03-02T01:52:48;7.87;;;1.37;;
20181;SDS011;10250;50.756;6.172;2024-03-02T01:54:48;5.83;;;1.17;;
20181;SDS011;10250;50.756;6.172;2024-03-02T01:56:49;7.10;;;1.40;;
20181;SDS011;10250;50.756;6.172;2024-03-02T01:58:50;6.20;;;1.37;;
20181;SDS011;10250;50.756;6.172;2024-03-02T02:00:50;4.23;;;1.10;;
20181;SDS011;10250;50.756;6.172;2024-03-02T02:02:51;4.37;;;1.40;;
20181;SDS011;10250;50.756;6.172;2024-03-02T02:04:52;5.57;;;1.30;;
20181;SDS011;10250;50.756;6.172;2024-03-02T02:06:53;4.00;;;1.10;;
20181;SDS011;10250;50.756;6.172;2024-03-02T02:08:54;4.80;;;1.23;;
20181;SDS011;10250;50.756;6.172;2024-03-02T02:10:54;7.53;;;1.57;;
20181;SDS011;10250;50.756;6.172;2024-03-02T02:12:55;4.17;;;1.20;;
20181;SDS011;10250;50.756;6.172;2024-03-02T02:14:56;7.20;;;1.50;;
20181;SDS011;10250;50.756;6.172;2024-03-02T02:16:56;6.93;;;1.40;;
20181;SDS011;10250;50.756;6.172;2024-03-02T02:18:57;6.27;;;1.53;;
20181;SDS011;10250;50.756;6.172;2024-03-02T02:20:57;5.20;;;1.30;;
20181;SDS011;10250;50.756;6.172;2024-03-02T02:22:59;5.50;;;1.40;;
20181;SDS011;10250;50.756;6.172;2024-03-02T02:25:01;8.93;;;1.60;;
20181;SDS011;10250;50.756;6.172;2024-03-02T02:27:01;8.37;;;1.60;;
20181;SDS011;10250;50.756;6.172;2024-03-02T02:29:02;6.40;;;1.30;;
20181;SDS011;10250;50.756;6.172;2024-03-02T02:31:03;5.97;;;1.40;;
20181;SDS011;10250;50.756;6.172;2024-03-02T02:33:04;7.63;;;1.40;;
20181;SDS011;10250;50.756;6.172;2024-03-02T02:35:05;6.30;;;1.33;;
20181;SDS011;10250;50.756;6.172;2024-03-02T02:37:06;6.60;;;1.50;;
20181;SDS011;10250;50.756;6.172;2024-03-02T02:39:09;2.93;;;1.07;;
20181;SDS011;10250;50.756;6.172;2024-03-02T02:41:13;7.63;;;1.17;;
20181;SDS011;10250;50.756;6.172;2024-03-02T02:43:13;7.73;;;1.30;;
20181;SDS011;10250;50.756;6.172;2024-03-02T02:45:14;3.77;;;1.10;;
20181;SDS011;10250;50.756;6.172;2024-03-02T02:47:15;4.13;;;1.20;;
20181;SDS011;10250;50.756;6.172;2024-03-02T02:49:15;5.93;;;1.40;;
20181;SDS011;10250;50.756;6.172;2024-03-02T02:51:17;4.93;;;1.20;;
20181;SDS011;10250;50.756;6.172;2024-03-02T02:53:17;5.20;;;1.33;;
20181;SDS011;10250;50.756;6.172;2024-03-02T02:55:18;3.80;;;1.13;;
20181;SDS011;10250;50.756;6.172;2024-03-02T02:57:19;4.93;;;1.13;;
20181;SDS011;10250;50.756;6.172;2024-03-02T02:59:19;4.03;;;0.97;;
20181;SDS011;10250;50.756;6.172;2024-03-02T03:01:20;3.87;;;0.97;;
20181;SDS011;10250;50.756;6.172;2024-03-02T03:03:20;6.40;;;1.10;;
20181;SDS011;10250;50.756;6.172;2024-03-02T03:05:21;5.50;;;1.17;;
20181;SDS011;10250;50.756;6.172;2024-03-02T03:07:21;3.33;;;1.00;;
20181;SDS011;10250;50.756;6.172;2024-03-02T03:09:22;5.07;;;1.30;;
20181;SDS011;10250;50.756;6.172;2024-03-02T03:11:22;3.30;;;1.10;;
20181;SDS011;10250;50.756;6.172;2024-03-02T03:13:24;6.13;;;1.13;;
20181;SDS011;10250;50.756;6.172;2024-03-02T03:15:25;5.13;;;1.20;;
20181;SDS011;10250;50.756;6.172;2024-03-02T03:17:26;6.50;;;1.17;;
20181;SDS011;10250;50.756;6.172;2024-03-02T03:19:29;5.43;;;1.60;;
20181;SDS011;10250;50.756;6.172;2024-03-02T03:21:31;4.83;;;1.20;;
20181;SDS011;10250;50.756;6.172;2024-03-02T03:23:31;3.77;;;1.00;;
20181;SDS011;10250;50.756;6.172;2024-03-02T03:25:32;7.07;;;1.30;;
20181;SDS011;10250;50.756;6.172;2024-03-02T03:27:32;3.87;;;1.10;;
20181;SDS011;10250;50.756;6.172;2024-03-02T03:29:33;5.33;;;1.30;;
20181;SDS011;10250;50.756;6.172;2024-03-02T03:31:33;5.40;;;1.23;;
20181;SDS011;10250;50.756;6.172;2024-03-02T03:33:34;5.70;;;1.10;;
20181;SDS011;10250;50.756;6.172;2024-03-02T03:35:34;6.77;;;1.13;;
20181;SDS011;10250;50.756;6.172;2024-03-02T03:37:36;6.00;;;1.10;;
20181;SDS011;10250;50.756;6.172;2024-03-02T03:39:37;5.00;;;1.30;;
20181;SDS011;10250;50.756;6.172;2024-03-02T03:41:37;5.37;;;1.40;;
20181;SDS011;10250;50.756;6.172;2024-03-02T03:43:38;6.53;;;1.37;;
20181;SDS011;10250;50.756;6.172;2024-03-02T03:45:38;6.73;;;1.63;;
20181;SDS011;10250;50.756;6.172;2024-03-02T03:47:39;5.80;;;1.60;;
20181;SDS011;10250;50.756;6.172;2024-03-02T03:49:39;7.63;;;1.73;;
20181;SDS011;10250;50.756;6.172;2024-03-02T03:51:40;5.27;;;1.43;;
20181;SDS011;10250;50.756;6.172;2024-03-02T03:53:40;4.27;;;1.30;;
20181;SDS011;10250;50.756;6.172;2024-03-02T03:55:41;9.00;;;1.97;;
20181;SDS011;10250;50.756;6.172;2024-03-02T03:57:42;6.13;;;1.57;;
20181;SDS011;10250;50.756;6.172;2024-03-02T03:59:42;8.67;;;1.60;;
20181;SDS011;10250;50.756;6.172;2024-03-02T04:01:44;4.50;;;1.13;;
20181;SDS011;10250;50.756;6.172;2024-03-02T04:03:45;6.40;;;1.43;;
20181;SDS011;10250;50.756;6.172;2024-03-02T04:05:45;3.67;;;1.20;;
20181;SDS011;10250;50.756;6.172;2024-03-02T04:07:46;5.63;;;1.20;;
20181;SDS011;10250;50.756;6.172;2024-03-02T04:09:46;8.77;;;1.27;;
20181;SDS011;10250;50.756;6.172;2024-03-02T04:11:47;1.33;;;0.73;;
20181;SDS011;10250;50.756;6.172;2024-03-02T04:13:47;2.57;;;0.90;;
20181;SDS011;10250;50.756;6.172;2024-03-02T04:15:48;5.67;;;1.23;;
20181;SDS011;10250;50.756;6.172;2024-03-02T04:17:48;3.37;;;0.90;;
20181;SDS011;10250;50.756;6.172;2024-03-02T04:19:49;2.60;;;0.90;;
20181;SDS011;10250;50.756;6.172;2024-03-02T04:21:49;2.47;;;0.77;;
20181;SDS011;10250;50.756;6.172;2024-03-02T04:23:50;1.80;;;0.67;;
20181;SDS011;10250;50.756;6.172;2024-03-02T04:25:51;3.03;;;0.87;;
20181;SDS011;10250;50.756;6.172;2024-03-02T04:27:52;3.60;;;0.70;;
20181;SDS011;10250;50.756;6.172;2024-03-02T04:29:52;1.53;;;0.60;;
20181;SDS011;10250;50.756;6.172;2024-03-02T04:31:53;2.47;;;0.80;;
20181;SDS011;10250;50.756;6.172;2024-03-02T04:33:53;3.27;;;0.80;;
20181;SDS011;10250;50.756;6.172;2024-03-02T04:35:54;1.80;;;0.70;;
20181;SDS011;10250;50.756;6.172;2024-03-02T04:37:54;3.47;;;0.80;;
20181;SDS011;10250;50.756;6.172;2024-03-02T04:39:55;3.63;;;0.80;;
20181;SDS011;10250;50.756;6.172;2024-03-02T04:41:56;4.23;;;0.90;;
20181;SDS011;10250;50.756;6.172;2024-03-02T04:43:56;2.17;;;0.60;;
20181;SDS011;10250;50.756;6.172;2024-03-02T04:45:57;4.30;;;0.80;;
20181;SDS011;10250;50.756;6.172;2024-03-02T04:47:58;1.37;;;0.47;;
20181;SDS011;10250;50.756;6.172;2024-03-02T04:49:59;4.20;;;0.63;;
20181;SDS011;10250;50.756;6.172;2024-03-02T04:51:59;0.90;;;0.53;;
20181;SDS011;10250;50.756;6.172;2024-03-02T04:54:00;0.67;;;0.47;;
20181;SDS011;10250;50.756;6.172;2024-03-02T04:56:00;2.53;;;0.50;;
20181;SDS011;10250;50.756;6.172;2024-03-02T04:58:24;2.80;;;0.77;;
20181;SDS011;10250;50.756;6.172;2024-03-02T05:00:24;4.67;;;0.90;;
20181;SDS011;10250;50.756;6.172;2024-03-02T05:02:25;2.33;;;0.67;;
20181;SDS011;10250;50.756;6.172;2024-03-02T05:04:25;1.33;;;0.50;;
20181;SDS011;10250;50.756;6.172;2024-03-02T05:06:26;1.80;;;0.50;;
20181;SDS011;10250;50.756;6.172;2024-03-02T05:08:26;0.60;;;0.40;;
20181;SDS011;10250;50.756;6.172;2024-03-02T05:10:27;1.40;;;0.30;;
20181;SDS011;10250;50.756;6.172;2024-03-02T05:12:27;1.40;;;0.50;;
20181;SDS011;10250;50.756;6.172;2024-03-02T05:14:43;1.43;;;0.57;;
20181;SDS011;10250;50.756;6.172;2024-03-02T05:16:43;0.50;;;0.30;;
20181;SDS011;10250;50.756;6.172;2024-03-02T05:18:44;1.90;;;0.50;;
20181;SDS011;10250;50.756;6.172;2024-03-02T05:20:45;2.50;;;0.70;;
20181;SDS011;10250;50.756;6.172;2024-03-02T05:22:45;0.30;;;0.30;;
20181;SDS011;10250;50.756;6.172;2024-03-02T05:24:47;0.40;;;0.40;;
20181;SDS011;10250;50.756;6.172;2024-03-02T05:26:47;2.67;;;0.50;;
20181;SDS011;10250;50.756;6.172;2024-03-02T05:28:49;1.40;;;0.50;;
20181;SDS011;10250;50.756;6.172;2024-03-02T05:30:49;0.70;;;0.40;;
20181;SDS011;10250;50.756;6.172;2024-03-02T05:32:50;1.83;;;0.43;;
20181;SDS011;10250;50.756;6.172;2024-03-02T05:34:50;1.70;;;0.63;;
20181;SDS011;10250;50.756;6.172;2024-03-02T05:36:51;0.70;;;0.30;;
20181;SDS011;10250;50.756;6.172;2024-03-02T05:38:51;1.13;;;0.47;;
20181;SDS011;10250;50.756;6.172;2024-03-02T05:40:52;1.23;;;0.50;;
20181;SDS011;10250;50.756;6.172;2024-03-02T05:42:53;2.47;;;0.50;;
20181;SDS011;10250;50.756;6.172;2024-03-02T05:44:53;2.27;;;0.57;;
20181;SDS011;10250;50.756;6.172;2024-03-02T05:46:54;2.57;;;0.63;;
20181;SDS011;10250;50.756;6.172;2024-03-02T05:48:55;2.53;;;0.60;;
20181;SDS011;10250;50.756;6.172;2024-03-02T05:50:55;2.00;;;0.50;;
20181;SDS011;10250;50.756;6.172;2024-03-02T05:52:56;2.13;;;0.60;;
20181;SDS011;10250;50.756;6.172;2024-03-02T05:54:57;1.40;;;0.50;;
20181;SDS011;10250;50.756;6.172;2024-03-02T05:56:57;3.30;;;0.50;;
20181;SDS011;10250;50.756;6.172;2024-03-02T05:59:16;2.60;;;0.60;;
20181;SDS011;10250;50.756;6.172;2024-03-02T06:01:17;0.97;;;0.30;;
20181;SDS011;10250;50.756;6.172;2024-03-02T06:03:20;1.93;;;0.63;;
20181;SDS011;10250;50.756;6.172;2024-03-02T06:05:21;2.07;;;0.70;;
20181;SDS011;10250;50.756;6.172;2024-03-02T06:07:21;2.77;;;0.70;;
20181;SDS011;10250;50.756;6.172;2024-03-02T06:09:22;1.37;;;0.63;;
20181;SDS011;10250;50.756;6.172;2024-03-02T06:11:24;0.63;;;0.40;;
20181;SDS011;10250;50.756;6.172;2024-03-02T06:13:25;1.17;;;0.37;;
20181;SDS011;10250;50.756;6.172;2024-03-02T06:15:26;2.80;;;0.70;;
20181;SDS011;10250;50.756;6.172;2024-03-02T06:17:27;2.23;;;0.70;;
20181;SDS011;10250;50.756;6.172;2024-03-02T06:19:27;1.33;;;0.50;;
20181;SDS011;10250;50.756;6.172;2024-03-02T06:21:28;1.23;;;0.77;;
20181;SDS011;10250;50.756;6.172;2024-03-02T06:23:29;2.40;;;0.60;;
20181;SDS011;10250;50.756;6.172;2024-03-02T06:25:29;1.57;;;0.40;;
20181;SDS011;10250;50.756;6.172;2024-03-02T06:27:30;1.97;;;0.60;;
20181;SDS011;10250;50.756;6.172;2024-03-02T06:29:33;2.47;;;0.33;;
20181;SDS011;10250;50.756;6.172;2024-03-02T06:31:34;1.50;;;0.60;;
20181;SDS011;10250;50.756;6.172;2024-03-02T06:33:35;1.77;;;0.50;;
20181;SDS011;10250;50.756;6.172;2024-03-02T06:35:35;1.70;;;0.50;;
20181;SDS011;10250;50.756;6.172;2024-03-02T06:37:36;1.53;;;0.43;;
20181;SDS011;10250;50.756;6.172;2024-03-02T06:39:38;1.27;;;0.47;;
20181;SDS011;10250;50.756;6.172;2024-03-02T06:41:39;2.40;;;0.50;;
20181;SDS011;10250;50.756;6.172;2024-03-02T06:43:39;1.17;;;0.57;;
20181;SDS011;10250;50.756;6.172;2024-03-02T06:45:40;2.67;;;0.60;;
20181;SDS011;10250;50.756;6.172;2024-03-02T06:47:41;1.50;;;0.53;;
20181;SDS011;10250;50.756;6.172;2024-03-02T06:49:41;1.20;;;0.43;;
20181;SDS011;10250;50.756;6.172;2024-03-02T06:51:42;1.70;;;0.50;;
20181;SDS011;10250;50.756;6.172;2024-03-02T06:53:42;1.93;;;0.60;;
20181;SDS011;10250;50.756;6.172;2024-03-02T06:55:46;5.00;;;0.67;;
20181;SDS011;10250;50.756;6.172;2024-03-02T06:57:47;2.80;;;0.60;;
20181;SDS011;10250;50.756;6.172;2024-03-02T06:59:47;0.97;;;0.50;;
20181;SDS011;10250;50.756;6.172;2024-03-02T07:01:50;3.43;;;0.77;;
20181;SDS011;10250;50.756;6.172;2024-03-02T07:03:51;1.90;;;0.57;;
20181;SDS011;10250;50.756;6.172;2024-03-02T07:05:52;2.57;;;0.63;;
20181;SDS011;10250;50.756;6.172;2024-03-02T07:07:52;2.73;;;0.60;;
20181;SDS011;10250;50.756;6.172;2024-03-02T07:09:53;4.90;;;0.70;;
20181;SDS011;10250;50.756;6.172;2024-03-02T07:11:53;3.40;;;0.77;;
20181;SDS011;10250;50.756;6.172;2024-03-02T07:13:54;1.40;;;0.70;;
20181;SDS011;10250;50.756;6.172;2024-03-02T07:15:55;2.37;;;0.70;;
20181;SDS011;10250;50.756;6.172;2024-03-02T07:18:04;1.60;;;0.60;;
20181;SDS011;10250;50.756;6.172;2024-03-02T07:20:05;1.00;;;0.40;;
20181;SDS011;10250;50.756;6.172;2024-03-02T07:22:06;1.93;;;0.50;;
20181;SDS011;10250;50.756;6.172;2024-03-02T07:24:08;2.43;;;0.60;;
20181;SDS011;10250;50.756;6.172;2024-03-02T07:26:12;5.27;;;0.90;;
20181;SDS011;10250;50.756;6.172;2024-03-02T07:28:13;2.03;;;0.73;;
20181;SDS011;10250;50.756;6.172;2024-03-02T07:30:14;1.47;;;0.60;;
20181;SDS011;10250;50.756;6.172;2024-03-02T07:32:16;5.53;;;1.07;;
20181;SDS011;10250;50.756;6.172;2024-03-02T07:34:16;1.13;;;0.60;;
20181;SDS011;10250;50.756;6.172;2024-03-02T07:36:17;5.70;;;0.80;;
20181;SDS011;10250;50.756;6.172;2024-03-02T07:38:19;3.67;;;0.80;;
20181;SDS011;10250;50.756;6.172;2024-03-02T07:40:20;2.47;;;0.73;;
20181;SDS011;10250;50.756;6.172;2024-03-02T07:42:20;3.50;;;0.53;;
20181;SDS011;10250;50.756;6.172;2024-03-02T07:44:21;4.53;;;0.97;;
20181;SDS011;10250;50.756;6.172;2024-03-02T07:46:21;1.27;;;0.57;;
20181;SDS011;10250;50.756;6.172;2024-03-02T07:48:22;1.53;;;0.77;;
20181;SDS011;10250;50.756;6.172;2024-03-02T07:50:23;6.43;;;1.07;;
20181;SDS011;10250;50.756;6.172;2024-03-02T07:52:23;3.13;;;0.83;;
20181;SDS011;10250;50.756;6.172;2024-03-02T07:54:24;5.50;;;0.90;;
20181;SDS011;10250;50.756;6.172;2024-03-02T07:56:24;5.90;;;0.90;;
20181;SDS011;10250;50.756;6.172;2024-03-02T07:58:25;3.20;;;1.10;;
20181;SDS011;10250;50.756;6.172;2024-03-02T08:00:26;3.70;;;1.13;;
20181;SDS011;10250;50.756;6.172;2024-03-02T08:02:27;3.80;;;0.90;;
20181;SDS011;10250;50.756;6.172;2024-03-02T08:04:28;4.27;;;1.10;;
20181;SDS011;10250;50.756;6.172;2024-03-02T08:06:29;2.90;;;1.00;;
20181;SDS011;10250;50.756;6.172;2024-03-02T08:08:30;2.37;;;0.93;;
20181;SDS011;10250;50.756;6.172;2024-03-02T08:10:30;4.97;;;1.70;;
20181;SDS011;10250;50.756;6.172;2024-03-02T08:12:31;8.57;;;1.63;;
20181;SDS011;10250;50.756;6.172;2024-03-02T08:14:31;4.90;;;1.50;;
20181;SDS011;10250;50.756;6.172;2024-03-02T08:16:32;5.37;;;1.10;;
20181;SDS011;10250;50.756;6.172;2024-03-02T08:18:33;4.30;;;1.17;;
20181;SDS011;10250;50.756;6.172;2024-03-02T08:20:34;3.17;;;1.20;;
20181;SDS011;10250;50.756;6.172;2024-03-02T08:22:35;5.10;;;1.37;;
20181;SDS011;10250;50.756;6.172;2024-03-02T08:24:35;6.53;;;1.30;;
20181;SDS011;10250;50.756;6.172;2024-03-02T08:26:36;4.80;;;1.40;;
20181;SDS011;10250;50.756;6.172;2024-03-02T08:28:37;3.37;;;1.10;;
20181;SDS011;10250;50.756;6.172;2024-03-02T08:30:37;9.07;;;1.27;;
20181;SDS011;10250;50.756;6.172;2024-03-02T08:32:38;5.33;;;1.20;;
20181;SDS011;10250;50.756;6.172;2024-03-02T08:34:38;4.57;;;1.20;;
20181;SDS011;10250;50.756;6.172;2024-03-02T08:36:39;6.80;;;1.30;;
20181;SDS011;10250;50.756;6.172;2024-03-02T08:38:40;5.10;;;1.20;;
20181;SDS011;10250;50.756;6.172;2024-03-02T08:40:41;9.17;;;1.60;;
20181;SDS011;10250;50.756;6.172;2024-03-02T08:42:41;3.57;;;1.20;;
20181;SDS011;10250;50.756;6.172;2024-03-02T08:44:42;5.67;;;1.13;;
20181;SDS011;10250;50.756;6.172;2024-03-02T08:46:43;6.03;;;1.17;;
20181;SDS011;10250;50.756;6.172;2024-03-02T08:48:44;4.50;;;1.30;;
20181;SDS011;10250;50.756;6.172;2024-03-02T08:50:45;6.27;;;1.20;;
20181;SDS011;10250;50.756;6.172;2024-03-02T08:52:45;7.17;;;1.13;;
20181;SDS011;10250;50.756;6.172;2024-03-02T08:54:46;7.47;;;1.20;;
20181;SDS011;10250;50.756;6.172;2024-03-02T08:56:46;7.47;;;1.20;;
20181;SDS011;10250;50.756;6.172;2024-03-02T08:58:48;6.40;;;1.20;;
20181;SDS011;10250;50.756;6.172;2024-03-02T09:00:49;7.47;;;1.20;;
20181;SDS011;10250;50.756;6.172;2024-03-02T09:02:49;7.60;;;1.47;;
20181;SDS011;10250;50.756;6.172;2024-03-02T09:04:50;2.97;;;0.97;;
20181;SDS011;10250;50.756;6.172;2024-03-02T09:06:51;5.23;;;1.10;;
20181;SDS011;10250;50.756;6.172;2024-03-02T09:08:51;6.00;;;1.20;;
20181;SDS011;10250;50.756;6.172;2024-03-02T09:10:52;8.13;;;1.20;;
20181;SDS011;10250;50.756;6.172;2024-03-02T09:12:53;3.70;;;1.03;;
20181;SDS011;10250;50.756;6.172;2024-03-02T09:14:54;4.77;;;1.20;;
20181;SDS011;10250;50.756;6.172;2024-03-02T09:16:54;3.33;;;0.80;;
20181;SDS011;10250;50.756;6.172;2024-03-02T09:18:55;4.57;;;1.00;;
20181;SDS011;10250;50.756;6.172;2024-03-02T09:20:55;4.93;;;0.83;;
20181;SDS011;10250;50.756;6.172;2024-03-02T09:22:56;4.40;;;1.00;;
20181;SDS011;10250;50.756;6.172;2024-03-02T09:24:56;6.63;;;1.10;;
20181;SDS011;10250;50.756;6.172;2024-03-02T09:26:57;5.07;;;0.97;;
20181;SDS011;10250;50.756;6.172;2024-03-02T09:28:58;3.20;;;0.80;;
20181;SDS011;10250;50.756;6.172;2024-03-02T09:31:00;4.30;;;0.77;;
20181;SDS011;10250;50.756;6.172;2024-03-02T09:33:01;5.67;;;1.10;;
20181;SDS011;10250;50.756;6.172;2024-03-02T09:35:01;4.73;;;1.00;;
20181;SDS011;10250;50.756;6.172;2024-03-02T09:37:02;4.33;;;1.13;;
20181;SDS011;10250;50.756;6.172;2024-03-02T09:39:04;3.27;;;1.00;;
20181;SDS011;10250;50.756;6.172;2024-03-02T09:41:04;6.80;;;1.17;;
20181;SDS011;10250;50.756;6.172;2024-03-02T09:43:05;5.87;;;1.20;;
20181;SDS011;10250;50.756;6.172;2024-03-02T09:45:07;6.10;;;1.00;;
20181;SDS011;10250;50.756;6.172;2024-03-02T09:47:08;4.67;;;0.87;;
20181;SDS011;10250;50.756;6.172;2024-03-02T09:49:12;5.40;;;1.00;;
20181;SDS011;10250;50.756;6.172;2024-03-02T09:51:12;7.30;;;1.03;;
20181;SDS011;10250;50.756;6.172;2024-03-02T09:53:14;8.10;;;1.30;;
20181;SDS011;10250;50.756;6.172;2024-03-02T09:55:15;4.93;;;0.97;;
20181;SDS011;10250;50.756;6.172;2024-03-02T09:57:17;4.57;;;1.27;;
20181;SDS011;10250;50.756;6.172;2024-03-02T09:59:17;6.90;;;1.00;;
20181;SDS011;10250;50.756;6.172;2024-03-02T10:01:20;7.13;;;0.90;;
20181;SDS011;10250;50.756;6.172;2024-03-02T10:03:20;7.40;;;1.37;;
20181;SDS011;10250;50.756;6.172;2024-03-02T10:05:24;5.50;;;0.97;;
20181;SDS011;10250;50.756;6.172;2024-03-02T10:07:26;4.50;;;0.80;;
20181;SDS011;10250;50.756;6.172;2024-03-02T10:09:27;2.90;;;0.83;;
20181;SDS011;10250;50.756;6.172;2024-03-02T10:11:29;4.50;;;0.80;;
20181;SDS011;10250;50.756;6.172;2024-03-02T10:13:32;3.40;;;0.73;;
20181;SDS011;10250;50.756;6.172;2024-03-02T10:15:35;3.80;;;0.77;;
20181;SDS011;10250;50.756;6.172;2024-03-02T10:17:37;1.63;;;0.57;;
20181;SDS011;10250;50.756;6.172;2024-03-02T10:19:38;5.70;;;0.97;;
20181;SDS011;10250;50.756;6.172;2024-03-02T10:21:39;5.57;;;1.03;;
20181;SDS011;10250;50.756;6.172;2024-03-02T10:23:41;5.73;;;0.93;;
20181;SDS011;10250;50.756;6.172;2024-03-02T10:25:41;7.60;;;1.00;;
20181;SDS011;10250;50.756;6.172;2024-03-02T10:27:43;6.57;;;1.20;;
20181;SDS011;10250;50.756;6.172;2024-03-02T10:29:47;7.93;;;1.03;;
20181;SDS011;10250;50.756;6.172;2024-03-02T10:31:48;7.57;;;1.20;;
20181;SDS011;10250;50.756;6.172;2024-03-02T10:33:48;5.50;;;0.90;;
20181;SDS011;10250;50.756;6.172;2024-03-02T10:35:49;5.37;;;1.07;;
20181;SDS011;10250;50.756;6.172;2024-03-02T10:37:50;6.00;;;0.90;;
20181;SDS011;10250;50.756;6.172;2024-03-02T10:39:52;2.23;;;0.70;;
20181;SDS011;10250;50.756;6.172;2024-03-02T10:41:52;5.37;;;1.07;;
20181;SDS011;10250;50.756;6.172;2024-03-02T10:43:55;5.27;;;0.90;;
20181;SDS011;10250;50.756;6.172;2024-03-02T10:45:59;6.17;;;1.20;;
20181;SDS011;10250;50.756;6.172;2024-03-02T10:48:00;2.43;;;0.70;;
20181;SDS011;10250;50.756;6.172;2024-03-02T10:50:02;6.87;;;0.70;;
20181;SDS011;10250;50.756;6.172;2024-03-02T10:52:08;6.90;;;0.80;;
20181;SDS011;10250;50.756;6.172;2024-03-02T10:54:09;5.33;;;1.10;;
20181;SDS011;10250;50.756;6.172;2024-03-02T10:56:09;4.73;;;0.97;;
20181;SDS011;10250;50.756;6.172;2024-03-02T10:58:16;6.53;;;0.90;;
20181;SDS011;10250;50.756;6.172;2024-03-02T11:00:18;4.53;;;0.90;;
20181;SDS011;10250;50.756;6.172;2024-03-02T11:02:24;3.27;;;0.77;;
20181;SDS011;10250;50.756;6.172;2024-03-02T11:04:28;4.27;;;0.93;;
20181;SDS011;10250;50.756;6.172;2024-03-02T11:06:30;4.33;;;0.80;;
20181;SDS011;10250;50.756;6.172;2024-03-02T11:08:34;6.40;;;1.00;;
20181;SDS011;10250;50.756;6.172;2024-03-02T11:10:45;4.57;;;0.93;;
20181;SDS011;10250;50.756;6.172;2024-03-02T11:12:59;4.30;;;0.93;;
20181;SDS011;10250;50.756;6.172;2024-03-02T11:15:02;6.73;;;1.00;;
20181;SDS011;10250;50.756;6.172;2024-03-02T11:17:09;5.87;;;1.07;;
20181;SDS011;10250;50.756;6.172;2024-03-02T11:19:15;4.77;;;0.90;;
20181;SDS011;10250;50.756;6.172;2024-03-02T11:21:16;4.03;;;1.23;;
20181;SDS011;10250;50.756;6.172;2024-03-02T11:23:17;5.47;;;1.07;;
20181;SDS011;10250;50.756;6.172;2024-03-02T11:25:27;4.00;;;0.73;;
20181;SDS011;10250;50.756;6.172;2024-03-02T11:30:02;5.70;;;1.10;;
20181;SDS011;10250;50.756;6.172;2024-03-02T11:32:03;5.60;;;0.90;;
20181;SDS011;10250;50.756;6.172;2024-03-02T11:34:17;5.10;;;0.97;;
20181;SDS011;10250;50.756;6.172;2024-03-02T11:36:29;3.23;;;0.80;;
20181;SDS011;10250;50.756;6.172;2024-03-02T11:38:30;8.63;;;1.30;;
20181;SDS011;10250;50.756;6.172;2024-03-02T11:40:32;6.80;;;1.10;;
20181;SDS011;10250;50.756;6.172;2024-03-02T11:42:33;6.73;;;1.10;;
20181;SDS011;10250;50.756;6.172;2024-03-02T11:44:33;2.57;;;0.77;;
20181;SDS011;10250;50.756;6.172;2024-03-02T11:46:34;6.13;;;1.10;;
20181;SDS011;10250;50.756;6.172;2024-03-02T11:48:35;6.87;;;0.97;;
20181;SDS011;10250;50.756;6.172;2024-03-02T11:50:46;3.67;;;0.63;;
20181;SDS011;10250;50.756;6.172;2024-03-02T11:52:49;5.50;;;1.40;;
20181;SDS011;10250;50.756;6.172;2024-03-02T11:54:50;5.80;;;1.00;;
20181;SDS011;10250;50.756;6.172;2024-03-02T11:56:51;6.77;;;1.00;;
20181;SDS011;10250;50.756;6.172;2024-03-02T11:58:54;4.90;;;0.90;;
20181;SDS011;10250;50.756;6.172;2024-03-02T12:00:55;8.17;;;1.60;;
20181;SDS011;10250;50.756;6.172;2024-03-02T12:03:09;8.93;;;1.93;;
20181;SDS011;10250;50.756;6.172;2024-03-02T12:05:12;7.60;;;1.40;;
20181;SDS011;10250;50.756;6.172;2024-03-02T12:07:20;7.40;;;1.07;;
20181;SDS011;10250;50.756;6.172;2024-03-02T12:09:22;2.90;;;0.80;;
20181;SDS011;10250;50.756;6.172;2024-03-02T12:11:23;4.83;;;1.10;;
20181;SDS011;10250;50.756;6.172;2024-03-02T12:13:23;5.43;;;1.10;;
20181;SDS011;10250;50.756;6.172;2024-03-02T12:15:25;4.50;;;1.03;;